createdAt,value
2022-09-20T00:01:16.534Z,101223.03
2022-09-20T00:03:47.773Z,101232.16
2022-09-20T00:06:17.288Z,101226.22
2022-09-20T00:08:44.704Z,101227.31
2022-09-20T00:11:16.857Z,101225.78
2022-09-20T00:13:45.819Z,101227.94
2022-09-20T00:16:20.255Z,101231.97
2022-09-20T00:18:55.877Z,101225.19
2022-09-20T00:21:27.143Z,101237.53
2022-09-20T00:23:54.518Z,101233.47
2022-09-20T00:26:21.204Z,101230.78
2022-09-20T00:28:47.866Z,101229.41
2022-09-20T00:31:15.245Z,101239.78
2022-09-20T00:34:00.790Z,101245.09
2022-09-20T00:36:27.496Z,101236.13
2022-09-20T00:39:04.071Z,101240.91
2022-09-20T00:41:32.128Z,101233.06
2022-09-20T00:44:00.552Z,101238.78
2022-09-20T00:46:41.116Z,101243.63
2022-09-20T00:49:21.116Z,101241.50
2022-09-20T00:51:55.307Z,101243.72
2022-09-20T00:54:24.707Z,101232.88
2022-09-20T00:56:51.596Z,101238.78
2022-09-20T00:59:33.031Z,101237.09
2022-09-20T01:02:06.783Z,101229.59
2022-09-20T01:04:35.240Z,101230.84
2022-09-20T01:07:05.365Z,101231.16
2022-09-20T01:09:32.056Z,101238.66
2022-09-20T01:12:03.878Z,101243.03
2022-09-20T01:14:30.817Z,101235.72
2022-09-20T01:17:02.657Z,101238.75
2022-09-20T01:19:48.838Z,101243.91
2022-09-20T01:22:35.624Z,101238.75
2022-09-20T01:25:14.691Z,101248.41
2022-09-20T01:27:45.816Z,101243.28
2022-09-20T01:30:25.756Z,101243.56
2022-09-20T01:33:10.895Z,101246.81
2022-09-20T01:35:41.257Z,101241.13
2022-09-20T01:38:10.788Z,101245.88
2022-09-20T01:40:49.025Z,101244.75
2022-09-20T01:43:31.942Z,101241.03
2022-09-20T01:46:02.214Z,101237.88
2022-09-20T01:48:39.484Z,101238.19
2022-09-20T01:51:12.000Z,101237.34
2022-09-20T01:53:53.725Z,101235.41
2022-09-20T01:56:38.471Z,101237.56
2022-09-20T01:59:25.236Z,101230.03
2022-09-20T02:01:51.897Z,101237.88
2022-09-20T02:04:32.202Z,101231.97
2022-09-20T02:07:14.889Z,101231.72
2022-09-20T02:10:00.218Z,101230.13
2022-09-20T02:12:52.760Z,101227.44
2022-09-20T02:15:36.551Z,101236.03
2022-09-20T02:18:05.813Z,101238.19
2022-09-20T02:20:37.229Z,101235.50
2022-09-20T02:23:27.778Z,101233.28
2022-09-20T02:26:15.173Z,101233.19
2022-09-20T02:29:13.081Z,101240.69
2022-09-20T02:31:55.019Z,101241.22
2022-09-20T02:34:39.846Z,101242.22
2022-09-20T02:37:15.591Z,101235.72
2022-09-20T02:40:17.634Z,101236.28
2022-09-20T02:42:52.028Z,101238.91
2022-09-20T02:45:35.590Z,101240.75
2022-09-20T02:48:04.712Z,101247.31
2022-09-20T02:50:51.589Z,101243.50
2022-09-20T02:53:46.214Z,101249.31
2022-09-20T02:56:15.885Z,101249.50
2022-09-20T02:59:11.803Z,101246.84
2022-09-20T03:02:07.481Z,101258.38
2022-09-20T03:04:37.059Z,101259.44
2022-09-20T03:07:35.972Z,101263.25
2022-09-20T03:10:18.911Z,101259.72
2022-09-20T03:13:17.868Z,101264.25
2022-09-20T03:15:53.530Z,101261.56
2022-09-20T03:18:33.439Z,101265.56
2022-09-20T03:21:15.604Z,101274.84
2022-09-20T03:24:09.159Z,101266.75
2022-09-20T03:26:43.204Z,101267.25
2022-09-20T03:29:36.294Z,101270.00
2022-09-20T03:32:33.070Z,101271.59
2022-09-20T03:35:37.950Z,101265.69
2022-09-20T03:38:46.322Z,101276.34
2022-09-20T03:41:45.129Z,101274.19
2022-09-20T03:44:45.259Z,101270.84
2022-09-20T03:47:24.969Z,101267.41
2022-09-20T03:50:03.247Z,101263.50
2022-09-20T03:52:53.423Z,101266.59
2022-09-20T03:55:45.443Z,101263.19
2022-09-20T03:58:42.037Z,101274.09
2022-09-20T04:01:45.974Z,101279.13
2022-09-20T04:04:33.143Z,101271.00
2022-09-20T04:07:08.611Z,101272.72
2022-09-20T04:09:51.093Z,101278.88
2022-09-20T04:12:32.985Z,101278.31
2022-09-20T04:15:16.064Z,101273.44
2022-09-20T04:17:55.829Z,101266.44
2022-09-20T04:20:39.991Z,101266.34
2022-09-20T04:23:35.916Z,101267.91
2022-09-20T04:26:03.456Z,101266.25
2022-09-20T04:28:47.711Z,101272.69
2022-09-20T04:31:56.389Z,101276.53
2022-09-20T04:34:50.720Z,101284.97
2022-09-20T04:37:27.215Z,101278.66
2022-09-20T04:40:17.154Z,101284.41
2022-09-20T04:42:46.677Z,101290.59
2022-09-20T04:45:38.127Z,101302.97
2022-09-20T04:48:38.797Z,101291.75
2022-09-20T04:51:34.826Z,101302.31
2022-09-20T04:54:22.954Z,101288.09
2022-09-20T04:56:58.721Z,101294.53
2022-09-20T04:59:58.068Z,101301.66
2022-09-20T05:03:18.792Z,101313.22
2022-09-20T05:06:06.608Z,101308.41
2022-09-20T05:08:58.853Z,101322.47
2022-09-20T05:12:15.054Z,101315.00
2022-09-20T05:15:19.103Z,101314.16
2022-09-20T05:18:10.884Z,101329.22
2022-09-20T05:20:59.487Z,101333.06
2022-09-20T05:23:39.986Z,101333.72
2022-09-20T05:26:29.725Z,101331.38
2022-09-20T05:29:10.032Z,101331.16
2022-09-20T05:32:11.937Z,101333.25
2022-09-20T05:35:22.991Z,101330.19
2022-09-20T05:38:08.327Z,101327.59
2022-09-20T05:41:00.283Z,101330.38
2022-09-20T05:43:33.606Z,101331.66
2022-09-20T05:46:16.260Z,101341.59
2022-09-20T05:49:12.109Z,101340.63
2022-09-20T05:51:47.844Z,101337.72
2022-09-20T05:54:28.362Z,101334.00
2022-09-20T05:57:36.727Z,101334.69
2022-09-20T06:00:10.401Z,101333.53
2022-09-20T06:02:51.836Z,101343.69
2022-09-20T06:05:56.023Z,101339.03
2022-09-20T06:08:46.551Z,101338.06
2022-09-20T06:11:46.752Z,101341.78
2022-09-20T06:14:19.687Z,101341.19
2022-09-20T06:16:57.736Z,101346.81
2022-09-20T06:19:36.937Z,101349.09
2022-09-20T06:22:28.749Z,101351.25
2022-09-20T06:25:02.954Z,101351.16
2022-09-20T06:27:37.884Z,101355.09
2022-09-20T06:30:43.406Z,101350.00
2022-09-20T06:33:18.244Z,101354.66
2022-09-20T06:35:53.055Z,101356.16
2022-09-20T06:39:07.829Z,101359.41
2022-09-20T06:41:35.653Z,101364.66
2022-09-20T06:44:05.481Z,101369.91
2022-09-20T06:46:34.904Z,101360.41
2022-09-20T06:49:02.402Z,101371.50
2022-09-20T06:51:34.853Z,101371.53
2022-09-20T06:54:01.709Z,101375.22
2022-09-20T06:56:31.598Z,101375.66
2022-09-20T06:58:58.158Z,101377.91
2022-09-20T07:01:30.110Z,101374.63
2022-09-20T07:03:58.614Z,101376.47
2022-09-20T07:06:26.734Z,101378.22
2022-09-20T07:08:53.388Z,101378.00
2022-09-20T07:11:20.379Z,101372.78
2022-09-20T07:13:51.962Z,101375.22
2022-09-20T07:16:19.073Z,101379.16
2022-09-20T07:18:46.793Z,101373.47
2022-09-20T07:21:15.712Z,101385.78
2022-09-20T07:23:42.657Z,101384.66
2022-09-20T07:26:27.929Z,101378.78
2022-09-20T07:28:55.793Z,101377.31
2022-09-20T07:31:25.550Z,101392.44
2022-09-20T07:33:52.180Z,101391.28
2022-09-20T07:36:18.993Z,101390.53
2022-09-20T07:38:50.429Z,101390.38
2022-09-20T07:41:22.729Z,101388.75
2022-09-20T07:43:50.811Z,101393.72
2022-09-20T07:46:19.254Z,101391.59
2022-09-20T07:48:45.971Z,101385.41
2022-09-20T07:51:13.824Z,101388.38
2022-09-20T07:53:40.974Z,101393.47
2022-09-20T07:56:10.354Z,101397.47
2022-09-20T07:58:37.940Z,101404.84
2022-09-20T08:01:08.143Z,101395.97
2022-09-20T08:03:35.842Z,101402.44
2022-09-20T08:06:05.609Z,101404.66
2022-09-20T08:08:33.267Z,101410.63
2022-09-20T08:11:14.363Z,101407.72
2022-09-20T08:16:31.840Z,101402.84
2022-09-20T08:19:00.868Z,101400.41
2022-09-20T08:21:31.693Z,101400.91
2022-09-20T08:23:59.219Z,101405.00
2022-09-20T08:26:27.727Z,101405.84
2022-09-20T08:28:56.859Z,101406.38
2022-09-20T08:31:34.587Z,101409.59
2022-09-20T08:34:06.510Z,101405.22
2022-09-20T08:36:36.815Z,101415.63
2022-09-20T08:42:12.398Z,101415.22
2022-09-20T08:45:01.173Z,101416.19
2022-09-20T08:47:32.715Z,101415.97
2022-09-20T08:50:09.268Z,101406.13
2022-09-20T08:52:39.754Z,101404.47
2022-09-20T08:55:16.880Z,101404.22
2022-09-20T08:57:47.513Z,101400.78
2022-09-20T09:00:20.293Z,101406.06
2022-09-20T09:02:47.393Z,101400.00
2022-09-20T09:05:34.434Z,101404.03
2022-09-20T09:08:08.316Z,101400.28
2022-09-20T09:10:43.311Z,101402.19
2022-09-20T09:13:18.859Z,101404.16
2022-09-20T09:15:49.194Z,101396.63
2022-09-20T09:18:15.910Z,101402.53
2022-09-20T09:20:47.244Z,101393.44
2022-09-20T09:23:27.358Z,101397.09
2022-09-20T09:25:56.427Z,101395.97
2022-09-20T09:28:25.275Z,101386.53
2022-09-20T09:30:52.058Z,101390.84
2022-09-20T09:33:25.253Z,101384.97
2022-09-20T09:35:53.205Z,101372.47
2022-09-20T09:38:25.879Z,101369.00
2022-09-20T09:41:24.710Z,101383.81
2022-09-20T09:44:04.843Z,101381.41
2022-09-20T09:46:34.144Z,101385.91
2022-09-20T09:49:17.203Z,101385.09
2022-09-20T09:52:02.217Z,101378.63
2022-09-20T09:54:36.239Z,101386.06
2022-09-20T09:57:28.862Z,101388.00
2022-09-20T10:00:20.996Z,101375.88
2022-09-20T10:03:21.004Z,101383.59
2022-09-20T10:06:05.558Z,101368.47
2022-09-20T10:09:09.292Z,101367.16
2022-09-20T10:12:04.867Z,101372.41
2022-09-20T10:15:03.516Z,101367.19
2022-09-20T10:17:52.123Z,101360.66
2022-09-20T10:20:28.666Z,101358.38
2022-09-20T10:23:45.499Z,101356.94
2022-09-20T10:26:05.806Z,101348.00
2022-09-20T10:29:11.571Z,101344.91
2022-09-20T10:32:12.780Z,101342.47
2022-09-20T10:35:11.766Z,101342.53
2022-09-20T10:37:49.041Z,101343.06
2022-09-20T10:40:16.088Z,101348.34
2022-09-20T10:43:04.509Z,101350.72
2022-09-20T10:48:41.574Z,101370.97
2022-09-20T10:51:25.736Z,101378.75
2022-09-20T10:53:52.432Z,101393.28
2022-09-20T10:56:40.007Z,101404.47
2022-09-20T10:59:30.293Z,101394.75
2022-09-20T11:02:33.560Z,101390.56
2022-09-20T11:05:24.369Z,101383.59
2022-09-20T11:08:09.885Z,101384.34
2022-09-20T11:10:51.505Z,101373.19
2022-09-20T11:13:31.212Z,101372.69
2022-09-20T11:16:11.908Z,101374.75
2022-09-20T11:18:59.039Z,101387.28
2022-09-20T11:21:39.030Z,101400.66
2022-09-20T11:24:13.280Z,101395.31
2022-09-20T11:26:52.238Z,101416.81
2022-09-20T11:29:19.749Z,101422.31
2022-09-20T11:31:50.985Z,101421.13
2022-09-20T11:34:40.202Z,101414.69
2022-09-20T11:37:09.323Z,101412.78
2022-09-20T11:39:54.872Z,101409.06
2022-09-20T11:42:28.275Z,101406.34
2022-09-20T11:44:55.612Z,101398.56
2022-09-20T11:48:10.491Z,101399.88
2022-09-20T11:51:08.810Z,101397.84
2022-09-20T11:54:16.203Z,101390.53
2022-09-20T11:56:51.608Z,101381.38
2022-09-20T11:59:35.909Z,101376.47
2022-09-20T12:02:18.855Z,101382.78
2022-09-20T12:04:49.784Z,101377.84
2022-09-20T12:07:19.882Z,101382.44
2022-09-20T12:09:54.014Z,101376.72
2022-09-20T12:12:42.460Z,101382.22
2022-09-20T12:15:21.340Z,101372.06
2022-09-20T12:18:01.849Z,101384.00
2022-09-20T12:20:39.447Z,101377.91
2022-09-20T12:23:43.654Z,101381.28
2022-09-20T12:26:21.245Z,101380.84
2022-09-20T12:28:55.514Z,101381.34
2022-09-20T12:31:26.606Z,101373.16
2022-09-20T12:34:15.292Z,101376.16
2022-09-20T12:36:46.588Z,101371.75
2022-09-20T12:39:19.060Z,101363.53
2022-09-20T12:41:56.131Z,101365.88
2022-09-20T12:44:35.223Z,101361.00
2022-09-20T12:47:14.480Z,101364.69
2022-09-20T12:50:04.390Z,101363.56
2022-09-20T12:52:52.903Z,101360.19
2022-09-20T12:56:04.579Z,101359.00
2022-09-20T12:58:53.919Z,101356.09
2022-09-20T13:01:21.156Z,101363.22
2022-09-20T13:03:52.236Z,101350.72
2022-09-20T13:06:19.362Z,101353.56
2022-09-20T13:08:48.161Z,101353.81
2022-09-20T13:11:24.131Z,101359.44
2022-09-20T13:14:09.055Z,101357.81
2022-09-20T13:17:06.406Z,101358.38
2022-09-20T13:19:43.303Z,101362.59
2022-09-20T13:22:35.200Z,101378.34
2022-09-20T13:25:06.202Z,101382.84
2022-09-20T13:27:36.634Z,101376.38
2022-09-20T13:30:23.668Z,101381.25
2022-09-20T13:32:51.613Z,101370.00
2022-09-20T13:35:24.179Z,101372.66
2022-09-20T13:37:56.803Z,101373.88
2022-09-20T13:40:31.939Z,101375.25
2022-09-20T13:43:22.137Z,101372.06
2022-09-20T13:46:07.401Z,101366.63
2022-09-20T13:48:36.624Z,101367.09
2022-09-20T13:51:04.629Z,101367.25
2022-09-20T13:53:47.108Z,101367.50
2022-09-20T13:56:21.881Z,101360.38
2022-09-20T13:58:51.802Z,101366.75
2022-09-20T14:01:28.046Z,101358.72
2022-09-20T14:03:57.523Z,101362.97
2022-09-20T14:06:29.996Z,101361.09
2022-09-20T14:08:59.632Z,101357.59
2022-09-20T14:11:31.101Z,101362.88
2022-09-20T14:14:01.807Z,101351.31
2022-09-20T14:16:34.506Z,101357.66
2022-09-20T14:19:02.464Z,101355.19
2022-09-20T14:21:34.770Z,101350.25
2022-09-20T14:24:27.519Z,101351.06
2022-09-20T14:27:16.518Z,101340.56
2022-09-20T14:29:54.477Z,101344.72
2022-09-20T14:32:21.170Z,101342.13
2022-09-20T14:35:27.213Z,101345.88
2022-09-20T14:38:01.898Z,101342.91
2022-09-20T14:40:40.466Z,101328.34
2022-09-20T14:43:07.631Z,101340.66
2022-09-20T14:45:39.965Z,101336.94
2022-09-20T14:48:26.503Z,101340.78
2022-09-20T14:51:16.318Z,101335.34
2022-09-20T14:53:44.762Z,101329.44
2022-09-20T14:56:14.694Z,101340.88
2022-09-20T14:59:21.070Z,101338.78
2022-09-20T15:01:59.084Z,101339.78
2022-09-20T15:04:28.182Z,101339.06
2022-09-20T15:06:57.010Z,101337.47
2022-09-20T15:09:23.779Z,101332.03
2022-09-20T15:12:00.837Z,101336.97
2022-09-20T15:14:27.615Z,101333.78
2022-09-20T15:16:54.732Z,101337.63
2022-09-20T15:19:21.562Z,101335.19
2022-09-20T15:21:48.207Z,101328.63
2022-09-20T15:24:17.699Z,101332.66
2022-09-20T15:26:47.649Z,101334.66
2022-09-20T15:29:17.833Z,101333.78
2022-09-20T15:31:47.567Z,101335.97
2022-09-20T15:34:14.758Z,101339.28
2022-09-20T15:36:41.677Z,101340.41
2022-09-20T15:39:09.076Z,101333.34
2022-09-20T15:41:36.251Z,101335.22
2022-09-20T15:44:04.766Z,101330.78
2022-09-20T15:46:32.221Z,101333.72
2022-09-20T15:49:01.274Z,101335.44
2022-09-20T15:51:29.436Z,101336.06
2022-09-20T15:53:57.342Z,101331.75
2022-09-20T15:56:33.475Z,101341.03
2022-09-20T15:59:02.370Z,101332.44
2022-09-20T16:01:32.332Z,101331.44
2022-09-20T16:03:59.402Z,101328.22
2022-09-20T16:06:26.159Z,101336.09
2022-09-20T16:08:53.058Z,101341.75
2022-09-20T16:11:22.917Z,101335.81
2022-09-20T16:13:56.737Z,101329.81
2022-09-20T16:16:25.269Z,101336.34
2022-09-20T16:19:11.104Z,101338.25
2022-09-20T16:21:39.755Z,101337.50
2022-09-20T16:24:07.356Z,101341.31
2022-09-20T16:26:35.935Z,101335.97
2022-09-20T16:29:04.980Z,101344.91
2022-09-20T16:31:42.982Z,101349.25
2022-09-20T16:34:29.689Z,101341.94
2022-09-20T16:37:06.553Z,101351.69
2022-09-20T16:39:33.458Z,101349.81
2022-09-20T16:42:05.567Z,101357.13
2022-09-20T16:44:34.053Z,101352.25
2022-09-20T16:47:01.056Z,101350.91
2022-09-20T16:49:29.836Z,101357.69
2022-09-20T16:51:56.545Z,101357.13
2022-09-20T16:54:23.383Z,101357.16
2022-09-20T16:56:51.206Z,101362.03
2022-09-20T16:59:23.136Z,101360.41
2022-09-20T17:01:50.662Z,101363.66
2022-09-20T17:04:18.409Z,101372.84
2022-09-20T17:06:46.037Z,101376.91
2022-09-20T17:09:13.763Z,101375.81
2022-09-20T17:11:45.619Z,101376.63
2022-09-20T17:14:13.189Z,101384.16
2022-09-20T17:16:41.337Z,101391.66
2022-09-20T17:19:12.139Z,101385.19
2022-09-20T17:21:43.385Z,101388.94
2022-09-20T17:24:10.317Z,101400.22
2022-09-20T17:26:41.726Z,101396.41
2022-09-20T17:29:10.457Z,101398.50
2022-09-20T17:31:39.375Z,101398.19
2022-09-20T17:34:07.809Z,101395.22
2022-09-20T17:36:39.180Z,101400.59
2022-09-20T17:39:06.964Z,101402.75
2022-09-20T17:41:37.407Z,101401.66
2022-09-20T17:44:12.321Z,101404.84
2022-09-20T17:46:41.296Z,101406.41
2022-09-20T17:49:10.933Z,101405.78
2022-09-20T17:51:40.096Z,101407.88
2022-09-20T17:54:09.979Z,101407.78
2022-09-20T17:56:37.174Z,101412.06
2022-09-20T17:59:05.675Z,101415.81
2022-09-20T18:01:34.365Z,101414.22
2022-09-20T18:04:02.352Z,101425.81
2022-09-20T18:06:32.564Z,101425.72
2022-09-20T18:09:02.566Z,101423.81
2022-09-20T18:11:31.674Z,101424.31
2022-09-20T18:13:59.410Z,101433.47
2022-09-20T18:16:26.745Z,101435.91
2022-09-20T18:18:53.600Z,101436.72
2022-09-20T18:21:22.500Z,101437.25
2022-09-20T18:23:50.338Z,101444.22
2022-09-20T18:26:22.727Z,101447.16
2022-09-20T18:28:58.810Z,101450.88
2022-09-20T18:31:35.812Z,101443.47
2022-09-20T18:34:05.096Z,101453.44
2022-09-20T18:36:34.060Z,101446.69
2022-09-20T18:39:00.666Z,101452.34
2022-09-20T18:41:31.736Z,101456.91
2022-09-20T18:43:59.424Z,101457.47
2022-09-20T18:46:29.258Z,101468.25
2022-09-20T18:48:57.126Z,101461.75
2022-09-20T18:51:30.876Z,101469.19
2022-09-20T18:53:58.319Z,101464.38
2022-09-20T18:56:26.657Z,101474.66
2022-09-20T18:58:58.721Z,101473.00
2022-09-20T19:01:34.500Z,101478.66
2022-09-20T19:04:26.266Z,101481.59
2022-09-20T19:07:12.510Z,101487.47
2022-09-20T19:10:04.101Z,101490.19
2022-09-20T19:12:46.863Z,101492.31
2022-09-20T19:15:38.630Z,101501.47
2022-09-20T19:18:37.789Z,101496.59
2022-09-20T19:21:06.946Z,101508.97
2022-09-20T19:23:41.310Z,101505.53
2022-09-20T19:26:24.620Z,101516.63
2022-09-20T19:29:00.176Z,101516.09
2022-09-20T19:31:29.746Z,101522.56
2022-09-20T19:33:58.669Z,101518.75
2022-09-20T19:36:39.669Z,101530.53
2022-09-20T19:39:34.421Z,101527.59
2022-09-20T19:42:26.805Z,101530.28
2022-09-20T19:45:16.647Z,101533.53
2022-09-20T19:48:16.602Z,101535.16
2022-09-20T19:50:46.376Z,101533.78
2022-09-20T19:53:14.689Z,101536.44
2022-09-20T19:55:46.254Z,101534.97
2022-09-20T19:58:14.345Z,101535.31
2022-09-20T20:00:44.519Z,101538.00
2022-09-20T20:03:16.319Z,101531.91
2022-09-20T20:06:07.094Z,101532.97
2022-09-20T20:08:45.795Z,101536.16
2022-09-20T20:11:27.960Z,101543.16
2022-09-20T20:14:33.389Z,101539.41
2022-09-20T20:17:28.908Z,101544.47
2022-09-20T20:20:13.442Z,101544.00
2022-09-20T20:22:46.993Z,101549.63
2022-09-20T20:25:47.036Z,101543.25
2022-09-20T20:28:14.111Z,101545.09
2022-09-20T20:30:41.174Z,101540.59
2022-09-20T20:33:08.580Z,101543.63
2022-09-20T20:35:37.373Z,101540.97
2022-09-20T20:38:11.524Z,101551.03
2022-09-20T20:40:38.444Z,101547.00
2022-09-20T20:43:06.258Z,101550.00
2022-09-20T20:45:32.939Z,101554.91
2022-09-20T20:48:00.009Z,101558.72
2022-09-20T20:50:28.262Z,101555.50
2022-09-20T20:52:56.239Z,101555.03
2022-09-20T20:55:25.707Z,101555.59
2022-09-20T20:57:59.578Z,101560.97
2022-09-20T21:00:27.474Z,101556.41
2022-09-20T21:02:58.704Z,101556.72
2022-09-20T21:05:27.002Z,101561.53
2022-09-20T21:07:54.917Z,101560.47
2022-09-20T21:10:22.198Z,101560.47
2022-09-20T21:12:53.121Z,101553.47
2022-09-20T21:15:20.162Z,101552.91
2022-09-20T21:17:53.504Z,101559.84
2022-09-20T21:20:24.239Z,101557.59
2022-09-20T21:22:50.993Z,101568.25
2022-09-20T21:25:17.583Z,101564.34
2022-09-20T21:27:45.715Z,101559.13
2022-09-20T21:30:12.643Z,101563.09
2022-09-20T21:32:39.216Z,101567.78
2022-09-20T21:35:06.062Z,101563.38
2022-09-20T21:37:32.611Z,101567.63
2022-09-20T21:40:00.630Z,101564.41
2022-09-20T21:42:28.698Z,101572.22
2022-09-20T21:44:55.651Z,101569.78
2022-09-20T21:47:22.498Z,101569.78
2022-09-20T21:49:49.212Z,101571.06
2022-09-20T21:52:15.844Z,101567.00
2022-09-20T21:54:46.353Z,101567.50
2022-09-20T21:57:13.788Z,101561.47
2022-09-20T21:59:40.965Z,101572.72
2022-09-20T22:02:07.835Z,101574.84
2022-09-20T22:04:34.973Z,101573.72
2022-09-20T22:07:03.977Z,101571.50
2022-09-20T22:09:31.074Z,101569.78
2022-09-20T22:11:57.811Z,101571.59
2022-09-20T22:14:24.564Z,101571.25
2022-09-20T22:16:51.390Z,101582.97
2022-09-20T22:19:19.002Z,101580.22
2022-09-20T22:21:48.157Z,101580.09
2022-09-20T22:24:16.017Z,101581.06
2022-09-20T22:26:45.715Z,101575.63
2022-09-20T22:29:12.989Z,101575.50
2022-09-20T22:31:45.146Z,101575.19
2022-09-20T22:34:16.813Z,101585.94
2022-09-20T22:36:43.667Z,101575.44
2022-09-20T22:39:12.296Z,101578.94
2022-09-20T22:41:41.027Z,101578.00
2022-09-20T22:44:07.944Z,101583.06
2022-09-20T22:46:35.210Z,101582.72
2022-09-20T22:49:05.533Z,101580.03
2022-09-20T22:51:33.351Z,101577.34
2022-09-20T22:54:03.846Z,101584.84
2022-09-20T22:56:31.444Z,101585.34
2022-09-20T22:59:00.390Z,101584.75
2022-09-20T23:01:29.501Z,101587.91
2022-09-20T23:04:00.914Z,101587.31
2022-09-20T23:06:31.085Z,101591.31
2022-09-20T23:09:00.640Z,101591.53
2022-09-20T23:11:28.338Z,101597.03
2022-09-20T23:13:57.291Z,101592.56
2022-09-20T23:16:30.454Z,101593.84
2022-09-20T23:18:58.919Z,101588.41
2022-09-20T23:21:26.374Z,101586.06
2022-09-20T23:23:58.337Z,101582.94
2022-09-20T23:26:26.488Z,101586.31
2022-09-20T23:28:58.671Z,101584.91
2022-09-20T23:31:26.694Z,101588.31
2022-09-20T23:33:55.598Z,101585.28
2022-09-20T23:36:27.097Z,101587.53
2022-09-20T23:38:53.993Z,101579.97
2022-09-20T23:41:23.005Z,101581.94
2022-09-20T23:43:49.870Z,101580.31
2022-09-20T23:46:18.593Z,101581.63
2022-09-20T23:48:45.662Z,101578.78
2022-09-20T23:51:18.736Z,101579.03
2022-09-20T23:53:46.006Z,101584.88
2022-09-20T23:56:13.662Z,101583.00
2022-09-20T23:58:42.572Z,101582.19
